createdAt,value
2018-06-24T00:01:25.642Z,14.10
2018-06-24T00:03:52.592Z,14.10
2018-06-24T00:06:19.552Z,14.10
2018-06-24T00:08:46.465Z,14.10
2018-06-24T00:11:13.766Z,14.20
2018-06-24T00:13:40.849Z,14.20
2018-06-24T00:16:07.727Z,14.20
2018-06-24T00:18:34.683Z,14.20
2018-06-24T00:21:01.577Z,14.20
2018-06-24T00:23:28.525Z,14.20
2018-06-24T00:25:55.542Z,14.20
2018-06-24T00:28:23.166Z,14.20
2018-06-24T00:30:50.109Z,14.20
2018-06-24T00:33:16.994Z,14.20
2018-06-24T00:35:44.668Z,14.20
2018-06-24T00:38:12.269Z,14.20
2018-06-24T00:40:39.222Z,14.20
2018-06-24T00:43:06.149Z,14.10
2018-06-24T00:45:33.100Z,14.10
2018-06-24T00:48:00.017Z,14.20
2018-06-24T00:50:26.955Z,14.20
2018-06-24T00:52:54.565Z,14.10
2018-06-24T00:55:21.492Z,14.10
2018-06-24T00:57:48.417Z,14.20
2018-06-24T01:00:15.411Z,14.00
2018-06-24T01:02:42.275Z,13.80
2018-06-24T01:05:09.197Z,13.80
2018-06-24T01:07:36.306Z,13.70
2018-06-24T01:10:03.285Z,13.70
2018-06-24T01:12:30.240Z,13.60
2018-06-24T01:14:57.166Z,13.70
2018-06-24T01:17:24.068Z,13.70
2018-06-24T01:19:51.013Z,13.70
2018-06-24T01:22:17.944Z,13.70
2018-06-24T01:24:44.825Z,13.60
2018-06-24T01:27:11.820Z,13.50
2018-06-24T01:29:38.668Z,13.50
2018-06-24T01:32:05.531Z,13.50
2018-06-24T01:34:32.460Z,13.50
2018-06-24T01:36:59.415Z,13.40
2018-06-24T01:39:26.292Z,13.40
2018-06-24T01:41:53.885Z,13.20
2018-06-24T01:44:20.801Z,13.20
2018-06-24T01:46:47.676Z,13.20
2018-06-24T01:49:14.599Z,13.00
2018-06-24T01:51:41.533Z,12.90
2018-06-24T01:54:08.459Z,12.90
2018-06-24T01:56:35.372Z,12.70
2018-06-24T01:59:02.282Z,12.90
2018-06-24T02:01:29.224Z,12.90
2018-06-24T02:03:56.092Z,12.80
2018-06-24T02:06:23.045Z,12.80
2018-06-24T02:08:49.921Z,12.90
2018-06-24T02:11:16.849Z,12.90
2018-06-24T02:13:43.787Z,12.90
2018-06-24T02:16:10.721Z,13.00
2018-06-24T02:18:37.602Z,13.10
2018-06-24T02:21:04.503Z,13.00
2018-06-24T02:23:31.408Z,12.90
2018-06-24T02:25:58.298Z,12.90
2018-06-24T02:28:25.225Z,12.80
2018-06-24T02:30:52.096Z,12.70
2018-06-24T02:33:19.023Z,12.70
2018-06-24T02:35:45.893Z,12.70
2018-06-24T02:38:12.844Z,12.70
2018-06-24T02:40:54.501Z,12.70
2018-06-24T02:46:28.090Z,12.70
2018-06-24T02:49:08.562Z,12.60
2018-06-24T02:51:36.144Z,12.50
2018-06-24T02:54:03.087Z,12.50
2018-06-24T02:56:29.996Z,12.50
2018-06-24T02:58:56.884Z,12.50
2018-06-24T03:01:23.901Z,12.50
2018-06-24T03:03:50.763Z,12.50
2018-06-24T03:06:17.660Z,12.50
2018-06-24T03:08:44.548Z,12.40
2018-06-24T03:11:11.424Z,12.40
2018-06-24T03:13:38.328Z,12.40
2018-06-24T03:16:05.233Z,12.50
2018-06-24T03:18:32.173Z,12.50
2018-06-24T03:20:59.048Z,12.50
2018-06-24T03:23:25.992Z,12.50
2018-06-24T03:25:52.869Z,12.40
2018-06-24T03:28:19.771Z,12.50
2018-06-24T03:30:46.622Z,12.50
2018-06-24T03:33:13.566Z,12.70
2018-06-24T03:35:40.413Z,12.80
2018-06-24T03:38:07.346Z,13.00
2018-06-24T03:40:34.293Z,13.00
2018-06-24T03:43:01.145Z,13.00
2018-06-24T03:45:28.030Z,13.00
2018-06-24T03:47:55.686Z,12.90
2018-06-24T03:50:22.634Z,12.90
2018-06-24T03:52:50.293Z,12.80
2018-06-24T03:55:17.918Z,12.90
2018-06-24T03:57:44.847Z,12.90
2018-06-24T04:00:11.704Z,12.90
2018-06-24T04:02:38.709Z,13.00
2018-06-24T04:05:05.604Z,13.00
2018-06-24T04:07:32.528Z,13.10
2018-06-24T04:09:59.401Z,13.20
2018-06-24T04:12:26.311Z,13.30
2018-06-24T04:14:53.186Z,13.40
2018-06-24T04:17:20.143Z,13.50
2018-06-24T04:19:47.042Z,13.60
2018-06-24T04:22:13.962Z,13.70
2018-06-24T04:24:40.899Z,13.80
2018-06-24T04:27:21.355Z,13.80
2018-06-24T04:29:49.169Z,13.90
2018-06-24T04:32:16.033Z,14.00
2018-06-24T04:34:42.963Z,14.10
2018-06-24T04:37:09.832Z,14.20
2018-06-24T04:39:36.763Z,14.30
2018-06-24T04:42:03.752Z,14.40
2018-06-24T04:44:30.693Z,14.40
2018-06-24T04:46:57.548Z,14.40
2018-06-24T04:49:36.512Z,14.50
2018-06-24T04:52:05.585Z,14.80
2018-06-24T04:54:33.279Z,15.80
2018-06-24T04:57:00.188Z,15.80
2018-06-24T04:59:27.123Z,16.90
2018-06-24T05:01:54.776Z,18.20
2018-06-24T05:04:21.651Z,18.20
2018-06-24T05:06:49.312Z,23.20
2018-06-24T05:09:16.979Z,23.40
2018-06-24T05:11:44.577Z,22.00
2018-06-24T05:14:11.529Z,22.00
2018-06-24T05:16:38.429Z,22.80
2018-06-24T05:19:06.154Z,21.30
2018-06-24T05:21:33.049Z,21.30
2018-06-24T05:23:59.992Z,22.70
2018-06-24T05:26:26.906Z,24.30
2018-06-24T05:28:53.915Z,24.30
2018-06-24T05:31:20.768Z,25.10
2018-06-24T05:33:47.629Z,23.10
2018-06-24T05:36:14.557Z,21.70
2018-06-24T05:38:41.429Z,20.80
2018-06-24T05:41:08.393Z,20.10
2018-06-24T05:43:35.257Z,19.50
2018-06-24T05:46:02.239Z,19.20
2018-06-24T05:48:29.141Z,19.00
2018-06-24T05:50:56.857Z,18.90
2018-06-24T05:53:24.595Z,18.70
2018-06-24T05:55:51.520Z,18.70
2018-06-24T05:58:18.430Z,18.70
2018-06-24T06:00:45.482Z,18.70
2018-06-24T06:03:22.704Z,18.60
2018-06-24T06:05:50.351Z,18.60
2018-06-24T06:08:18.098Z,18.80
2018-06-24T06:10:59.170Z,18.80
2018-06-24T06:13:27.039Z,18.80
2018-06-24T06:15:54.019Z,18.80
2018-06-24T06:18:21.056Z,18.80
2018-06-24T06:20:48.679Z,18.50
2018-06-24T06:23:15.542Z,18.50
2018-06-24T06:25:42.464Z,18.60
2018-06-24T06:28:09.339Z,18.60
2018-06-24T06:30:36.276Z,18.70
2018-06-24T06:33:03.256Z,18.70
2018-06-24T06:35:30.940Z,18.90
2018-06-24T06:37:57.873Z,18.80
2018-06-24T06:40:24.873Z,18.70
2018-06-24T06:42:51.798Z,18.80
2018-06-24T06:45:18.860Z,19.00
2018-06-24T06:47:46.446Z,19.50
2018-06-24T06:50:13.339Z,19.50
2018-06-24T06:52:40.313Z,19.70
2018-06-24T06:55:07.285Z,20.00
2018-06-24T06:57:34.160Z,20.40
2018-06-24T07:00:01.860Z,21.00
2018-06-24T07:02:28.800Z,21.00
2018-06-24T07:04:55.672Z,21.10
2018-06-24T07:07:22.594Z,20.90
2018-06-24T07:09:49.462Z,20.90
2018-06-24T07:12:16.437Z,21.00
2018-06-24T07:14:44.113Z,20.80
2018-06-24T07:17:11.129Z,20.80
2018-06-24T07:19:38.008Z,20.80
2018-06-24T07:22:04.958Z,20.70
2018-06-24T07:24:31.812Z,20.60
2018-06-24T07:26:58.759Z,20.40
2018-06-24T07:29:25.631Z,20.50
2018-06-24T07:31:52.524Z,20.50
2018-06-24T07:34:19.452Z,20.60
2018-06-24T07:36:47.084Z,20.60
2018-06-24T07:39:14.051Z,20.60
2018-06-24T07:41:40.989Z,20.80
2018-06-24T07:44:07.932Z,21.20
2018-06-24T07:46:34.826Z,21.30
2018-06-24T07:49:01.759Z,21.30
2018-06-24T07:51:29.447Z,21.70
2018-06-24T07:53:56.454Z,21.70
2018-06-24T07:56:23.396Z,21.80
2018-06-24T07:58:50.288Z,22.00
2018-06-24T08:01:17.232Z,22.00
2018-06-24T08:03:44.115Z,22.20
2018-06-24T08:06:11.055Z,22.40
2018-06-24T08:08:37.932Z,22.40
2018-06-24T08:11:04.939Z,22.30
2018-06-24T08:13:31.824Z,22.30
2018-06-24T08:15:58.748Z,22.20
2018-06-24T08:18:25.672Z,22.50
2018-06-24T08:20:52.620Z,22.40
2018-06-24T08:23:19.647Z,22.40
2018-06-24T08:25:46.517Z,22.30
2018-06-24T08:28:13.452Z,22.00
2018-06-24T08:30:40.375Z,21.90
2018-06-24T08:33:07.320Z,21.80
2018-06-24T08:35:34.261Z,21.80
2018-06-24T08:38:15.195Z,21.50
2018-06-24T08:40:43.692Z,21.50
2018-06-24T08:43:10.640Z,21.50
2018-06-24T08:45:44.652Z,21.40
2018-06-24T08:48:11.572Z,21.50
2018-06-24T08:50:40.125Z,21.40
2018-06-24T08:53:07.072Z,21.40
2018-06-24T08:55:34.095Z,21.50
2018-06-24T08:58:01.737Z,21.70
2018-06-24T09:00:41.554Z,21.80
2018-06-24T09:03:10.564Z,21.80
2018-06-24T09:05:42.042Z,22.00
2018-06-24T09:08:22.364Z,22.00
2018-06-24T09:10:49.320Z,22.10
2018-06-24T09:13:24.139Z,22.20
2018-06-24T09:15:51.201Z,22.40
2018-06-24T09:18:18.361Z,22.90
2018-06-24T09:20:45.353Z,23.20
2018-06-24T09:23:12.958Z,23.40
2018-06-24T09:25:39.987Z,23.60
2018-06-24T09:28:06.894Z,23.80
2018-06-24T09:30:34.788Z,24.10
2018-06-24T09:33:01.793Z,24.30
2018-06-24T09:35:28.749Z,24.20
2018-06-24T09:37:55.729Z,24.30
2018-06-24T09:40:22.610Z,24.60
2018-06-24T09:42:49.630Z,25.40
2018-06-24T09:45:16.977Z,25.60
2018-06-24T09:47:43.877Z,25.50
2018-06-24T09:50:10.822Z,24.80
2018-06-24T09:52:39.358Z,23.80
2018-06-24T09:55:06.467Z,23.80
2018-06-24T09:57:33.473Z,23.70
2018-06-24T10:00:01.140Z,22.80
2018-06-24T10:02:28.095Z,22.80
2018-06-24T10:04:55.000Z,22.40
2018-06-24T10:07:21.957Z,22.20
2018-06-24T10:09:49.020Z,21.80
2018-06-24T10:12:15.961Z,21.70
2018-06-24T10:14:50.677Z,21.70
2018-06-24T10:17:18.136Z,21.60
2018-06-24T10:19:45.053Z,21.60
2018-06-24T10:22:12.668Z,21.30
2018-06-24T10:24:40.207Z,21.30
2018-06-24T10:27:07.335Z,21.20
2018-06-24T10:29:36.600Z,21.20
2018-06-24T10:32:03.947Z,21.30
2018-06-24T10:34:30.813Z,21.20
2018-06-24T10:39:47.692Z,21.30
2018-06-24T10:42:14.677Z,21.50
2018-06-24T10:44:41.650Z,21.80
2018-06-24T10:47:08.592Z,22.30
2018-06-24T10:49:36.272Z,23.20
2018-06-24T10:52:03.257Z,23.10
2018-06-24T10:54:30.205Z,23.30
2018-06-24T10:56:57.177Z,23.00
2018-06-24T10:59:24.816Z,23.70
2018-06-24T11:01:51.769Z,23.70
2018-06-24T11:04:18.731Z,24.30
2018-06-24T11:06:45.640Z,24.60
2018-06-24T11:09:13.708Z,25.10
2018-06-24T11:11:40.953Z,25.40
2018-06-24T11:28:59.041Z,25.40
2018-06-24T11:31:28.016Z,26.00
2018-06-24T11:34:07.564Z,25.90
2018-06-24T11:36:35.305Z,25.40
2018-06-24T11:39:02.322Z,25.40
2018-06-24T11:41:29.203Z,25.40
2018-06-24T11:47:18.273Z,24.70
2018-06-24T11:49:45.248Z,24.20
2018-06-24T11:52:12.089Z,24.00
2018-06-24T11:54:39.075Z,23.80
2018-06-24T11:57:05.969Z,23.80
2018-06-24T11:59:38.066Z,23.80
2018-06-24T12:02:05.178Z,23.90
2018-06-24T12:04:43.773Z,24.20
2018-06-24T12:07:25.283Z,24.40
2018-06-24T12:09:55.624Z,24.80
2018-06-24T12:12:36.593Z,25.40
2018-06-24T12:15:17.885Z,25.20
2018-06-24T12:17:59.639Z,25.60
2018-06-24T12:20:37.609Z,25.80
2018-06-24T12:23:13.455Z,25.70
2018-06-24T12:25:54.505Z,25.80
2018-06-24T12:28:22.017Z,25.80
2018-06-24T12:30:49.787Z,25.70
2018-06-24T12:33:16.884Z,25.70
2018-06-24T12:35:43.828Z,25.40
2018-06-24T12:38:10.756Z,25.30
2018-06-24T12:40:37.692Z,25.10
2018-06-24T12:43:04.713Z,25.00
2018-06-24T12:45:33.472Z,24.80
2018-06-24T12:48:00.420Z,24.50
2018-06-24T12:50:28.394Z,24.00
2018-06-24T12:52:55.558Z,24.00
2018-06-24T12:55:28.966Z,23.80
2018-06-24T12:58:03.466Z,24.20
2018-06-24T13:00:45.119Z,24.20
2018-06-24T13:03:25.432Z,24.40
2018-06-24T13:06:05.690Z,24.40
2018-06-24T13:08:43.659Z,24.50
2018-06-24T13:11:11.462Z,24.20
2018-06-24T13:13:40.974Z,24.20
2018-06-24T13:16:08.014Z,24.00
2018-06-24T13:18:34.953Z,23.90
2018-06-24T13:21:01.941Z,23.50
2018-06-24T13:23:29.762Z,23.20
2018-06-24T13:25:57.385Z,23.00
2018-06-24T13:28:24.325Z,22.70
2018-06-24T13:30:53.226Z,22.50
2018-06-24T13:33:20.548Z,22.30
2018-06-24T13:35:48.086Z,22.40
2018-06-24T13:38:14.984Z,22.20
2018-06-24T13:40:41.969Z,22.00
2018-06-24T13:43:08.924Z,21.70
2018-06-24T13:45:37.117Z,21.90
2018-06-24T13:48:04.041Z,22.00
2018-06-24T13:50:32.220Z,22.20
2018-06-24T13:52:59.098Z,22.30
2018-06-24T13:55:26.787Z,22.80
2018-06-24T13:57:53.944Z,22.80
2018-06-24T14:00:21.026Z,22.70
2018-06-24T14:02:48.247Z,22.80
2018-06-24T14:05:15.168Z,23.10
2018-06-24T14:07:42.045Z,23.40
2018-06-24T14:10:12.360Z,23.60
2018-06-24T14:12:42.144Z,23.80
2018-06-24T14:15:09.131Z,23.40
2018-06-24T14:17:36.009Z,23.70
2018-06-24T14:20:04.010Z,23.30
2018-06-24T14:22:30.880Z,23.50
2018-06-24T14:24:57.728Z,23.70
2018-06-24T14:27:24.642Z,23.90
2018-06-24T14:29:52.244Z,24.50
2018-06-24T14:32:21.199Z,24.50
2018-06-24T14:34:48.080Z,24.80
2018-06-24T14:37:15.204Z,24.80
2018-06-24T14:39:42.220Z,24.70
2018-06-24T14:42:10.115Z,24.40
2018-06-24T14:44:36.983Z,24.30
2018-06-24T14:47:04.018Z,24.20
2018-06-24T14:49:30.894Z,23.80
2018-06-24T14:51:57.879Z,23.50
2018-06-24T14:54:25.864Z,23.10
2018-06-24T14:56:53.665Z,23.10
2018-06-24T14:59:20.570Z,23.00
2018-06-24T15:02:02.221Z,22.90
2018-06-24T15:04:36.953Z,22.90
2018-06-24T15:07:10.209Z,23.10
2018-06-24T15:09:43.653Z,23.00
2018-06-24T15:15:00.610Z,23.00
2018-06-24T15:17:36.700Z,22.90
2018-06-24T15:20:06.292Z,22.90
2018-06-24T15:22:52.345Z,22.90
2018-06-24T15:25:27.524Z,22.80
2018-06-24T15:30:53.561Z,22.90
2018-06-24T15:33:31.787Z,22.90
2018-06-24T15:36:14.914Z,22.80
2018-06-24T15:38:56.591Z,22.70
2018-06-24T15:41:38.436Z,22.80
2018-06-24T15:44:06.292Z,22.90
2018-06-24T15:46:33.514Z,22.90
2018-06-24T15:49:01.185Z,23.20
2018-06-24T15:51:33.577Z,23.10
2018-06-24T15:54:10.632Z,23.10
2018-06-24T15:56:53.470Z,23.00
2018-06-24T15:59:33.542Z,22.90
2018-06-24T16:02:05.647Z,22.70
2018-06-24T16:04:32.681Z,22.70
2018-06-24T16:07:00.956Z,22.80
2018-06-24T16:09:29.286Z,22.70
2018-06-24T16:12:11.807Z,22.60
2018-06-24T16:14:38.880Z,22.60
2018-06-24T16:17:05.916Z,22.50
2018-06-24T16:19:34.343Z,22.40
2018-06-24T16:22:01.204Z,22.20
2018-06-24T16:24:28.881Z,22.20
2018-06-24T16:26:56.497Z,22.20
2018-06-24T16:29:24.004Z,22.20
2018-06-24T16:31:51.633Z,21.90
2018-06-24T16:34:18.501Z,21.90
2018-06-24T16:36:47.762Z,21.60
2018-06-24T16:39:14.716Z,21.70
2018-06-24T16:41:42.040Z,21.60
2018-06-24T16:44:08.952Z,21.60
2018-06-24T16:46:37.480Z,21.60
2018-06-24T16:49:05.407Z,21.60
2018-06-24T16:51:32.753Z,21.50
2018-06-24T16:54:00.525Z,21.40
2018-06-24T16:56:30.344Z,21.40
2018-06-24T17:01:55.361Z,21.30
2018-06-24T17:04:35.487Z,21.20
2018-06-24T17:07:13.723Z,21.30
2018-06-24T17:09:54.704Z,21.30
2018-06-24T17:12:36.294Z,21.20
2018-06-24T17:15:15.694Z,21.10
2018-06-24T17:17:54.352Z,21.10
2018-06-24T17:20:33.412Z,21.00
2018-06-24T17:23:10.373Z,21.00
2018-06-24T17:25:48.494Z,21.00
2018-06-24T17:28:30.855Z,21.00
2018-06-24T17:31:07.376Z,20.70
2018-06-24T17:33:46.691Z,20.70
2018-06-24T17:36:24.333Z,20.60
2018-06-24T17:39:02.661Z,20.50
2018-06-24T17:41:45.672Z,20.40
2018-06-24T17:44:29.173Z,20.40
2018-06-24T17:47:09.568Z,20.30
2018-06-24T17:49:51.399Z,20.30
2018-06-24T17:52:33.439Z,20.30
2018-06-24T17:55:12.739Z,20.20
2018-06-24T17:57:52.788Z,20.30
2018-06-24T18:00:33.023Z,20.30
2018-06-24T18:05:58.291Z,20.30
2018-06-24T18:08:38.075Z,20.40
2018-06-24T18:11:21.027Z,20.30
2018-06-24T18:13:58.459Z,20.20
2018-06-24T18:16:36.352Z,20.20
2018-06-24T18:19:15.014Z,20.20
2018-06-24T18:21:54.091Z,20.20
2018-06-24T18:27:14.263Z,20.20
2018-06-24T18:29:56.373Z,20.20
2018-06-24T18:32:35.675Z,20.20
2018-06-24T18:35:17.598Z,20.10
2018-06-24T18:37:57.550Z,20.10
2018-06-24T18:40:38.885Z,20.00
2018-06-24T18:43:18.268Z,19.90
2018-06-24T18:45:58.125Z,19.80
2018-06-24T18:48:34.933Z,19.80
2018-06-24T18:51:16.915Z,19.70
2018-06-24T18:53:55.829Z,19.60
2018-06-24T18:56:37.394Z,19.60
2018-06-24T18:59:17.403Z,19.70
2018-06-24T19:01:57.891Z,19.70
2018-06-24T19:04:36.740Z,19.70
2018-06-24T19:07:16.808Z,19.70
2018-06-24T19:09:55.813Z,19.70
2018-06-24T19:12:32.191Z,19.70
2018-06-24T19:15:12.223Z,19.70
2018-06-24T19:17:52.362Z,19.60
2018-06-24T19:20:34.267Z,19.30
2018-06-24T19:23:11.846Z,19.40
2018-06-24T19:25:51.656Z,19.30
2018-06-24T19:28:29.291Z,19.20
2018-06-24T19:31:10.421Z,19.30
2018-06-24T19:33:51.564Z,19.20
2018-06-24T19:36:29.233Z,19.10
2018-06-24T19:41:52.587Z,19.10
2018-06-24T19:44:33.589Z,18.90
2018-06-24T19:47:14.904Z,18.90
2018-06-24T19:49:54.286Z,18.90
2018-06-24T19:52:22.790Z,18.90
2018-06-24T19:54:50.564Z,18.90
2018-06-24T20:00:17.158Z,18.80
2018-06-24T20:02:57.563Z,18.80
2018-06-24T20:05:39.687Z,18.70
2018-06-24T20:08:21.927Z,18.60
2018-06-24T20:11:04.089Z,18.50
2018-06-24T20:13:46.551Z,18.40
2018-06-24T20:16:20.546Z,18.40
2018-06-24T20:19:02.371Z,18.50
2018-06-24T20:21:44.426Z,18.50
2018-06-24T20:27:12.034Z,18.30
2018-06-24T20:29:52.998Z,18.30
2018-06-24T20:32:21.935Z,18.20
2018-06-24T20:34:57.735Z,18.20
2018-06-24T20:37:34.159Z,18.30
2018-06-24T20:40:02.193Z,18.30
2018-06-24T20:42:42.548Z,18.20
2018-06-24T20:45:15.644Z,18.20
2018-06-24T20:47:42.630Z,18.20
2018-06-24T20:50:09.692Z,18.20
2018-06-24T20:52:36.849Z,18.10
2018-06-24T20:55:08.667Z,18.10
2018-06-24T20:57:35.715Z,18.10
2018-06-24T21:00:02.678Z,18.10
2018-06-24T21:02:36.388Z,18.10
2018-06-24T21:05:03.349Z,18.20
2018-06-24T21:07:30.950Z,18.20
2018-06-24T21:09:57.802Z,18.20
2018-06-24T21:12:24.661Z,18.20
2018-06-24T21:14:51.612Z,18.30
2018-06-24T21:17:18.505Z,18.20
2018-06-24T21:19:54.935Z,18.10
2018-06-24T21:22:31.440Z,18.10
2018-06-24T21:24:59.580Z,18.10
2018-06-24T21:27:26.704Z,18.10
2018-06-24T21:30:05.556Z,18.20
2018-06-24T21:32:42.022Z,18.20
2018-06-24T21:35:08.967Z,18.20
2018-06-24T21:37:35.879Z,18.20
2018-06-24T21:40:02.835Z,18.20
2018-06-24T21:42:34.710Z,18.10
2018-06-24T21:45:15.813Z,18.10
2018-06-24T21:47:43.586Z,18.10
2018-06-24T21:50:10.456Z,18.10
2018-06-24T21:52:37.448Z,18.10
2018-06-24T21:55:04.466Z,18.10
2018-06-24T21:57:32.139Z,18.00
2018-06-24T21:59:59.820Z,18.10
2018-06-24T22:02:26.680Z,18.10
2018-06-24T22:04:53.679Z,18.10
2018-06-24T22:07:21.450Z,18.20
2018-06-24T22:09:49.123Z,18.20
2018-06-24T22:12:30.503Z,18.20
2018-06-24T22:14:59.340Z,18.10
2018-06-24T22:17:26.913Z,18.10
2018-06-24T22:19:55.655Z,18.00
2018-06-24T22:22:23.687Z,18.00
2018-06-24T22:24:51.465Z,18.10
2018-06-24T22:27:19.248Z,18.20
2018-06-24T22:29:47.803Z,18.20
2018-06-24T22:32:15.723Z,18.20
2018-06-24T22:34:44.332Z,18.10
2018-06-24T22:37:12.251Z,18.10
2018-06-24T22:39:39.841Z,18.10
2018-06-24T22:42:07.720Z,18.10
2018-06-24T22:44:35.642Z,18.10
2018-06-24T22:47:04.210Z,18.10
2018-06-24T22:49:34.864Z,18.00
2018-06-24T22:52:02.119Z,17.90
2018-06-24T22:54:30.715Z,18.00
2018-06-24T22:56:59.294Z,18.00
2018-06-24T22:59:48.584Z,18.00
2018-06-24T23:02:16.343Z,17.90
2018-06-24T23:04:43.287Z,17.90
2018-06-24T23:07:10.506Z,17.90
2018-06-24T23:09:50.387Z,17.80
2018-06-24T23:12:32.461Z,17.80
2018-06-24T23:15:11.081Z,17.80
2018-06-24T23:17:48.292Z,17.80
2018-06-24T23:20:27.639Z,17.80
2018-06-24T23:23:06.797Z,17.80
2018-06-24T23:25:44.284Z,17.70
2018-06-24T23:28:24.436Z,17.80
2018-06-24T23:31:04.701Z,17.70
2018-06-24T23:33:47.627Z,17.70
2018-06-24T23:36:27.424Z,17.70
2018-06-24T23:39:05.538Z,17.60
2018-06-24T23:41:45.691Z,17.60
2018-06-24T23:44:24.089Z,17.60
2018-06-24T23:47:02.268Z,17.50
2018-06-24T23:49:44.321Z,17.50
2018-06-24T23:52:24.467Z,17.60
2018-06-24T23:55:05.529Z,17.60
2018-06-24T23:57:44.225Z,17.50
